createdAt,value
2023-04-10T00:01:25.679Z,0.20
2023-04-10T00:05:38.252Z,0.68
2023-04-10T00:09:50.733Z,0.47
2023-04-10T00:14:03.278Z,1.13
2023-04-10T00:18:15.722Z,0.70
2023-04-10T00:22:28.297Z,0.38
2023-04-10T00:26:41.586Z,0.70
2023-04-10T00:30:54.141Z,0.32
2023-04-10T00:35:07.883Z,0.40
2023-04-10T00:39:20.512Z,0.20
2023-04-10T00:43:33.045Z,0.30
2023-04-10T00:47:45.568Z,0.40
2023-04-10T00:51:58.650Z,0.65
2023-04-10T00:56:11.331Z,0.40
2023-04-10T01:00:24.037Z,0.82
2023-04-10T01:04:37.263Z,0.55
2023-04-10T01:09:31.701Z,0.32
2023-04-10T01:13:56.548Z,0.50
2023-04-10T01:18:22.636Z,0.17
2023-04-10T01:22:42.838Z,0.32
2023-04-10T01:27:25.664Z,0.20
2023-04-10T01:32:09.853Z,0.25
2023-04-10T01:36:29.062Z,0.32
2023-04-10T01:40:49.554Z,0.95
2023-04-10T01:45:04.501Z,0.70
2023-04-10T01:49:18.103Z,0.82
2023-04-10T01:53:32.502Z,0.88
2023-04-10T01:57:45.732Z,0.32
2023-04-10T02:02:02.625Z,0.75
2023-04-10T02:06:49.496Z,0.10
2023-04-10T02:11:13.491Z,0.22
2023-04-10T02:15:29.198Z,0.73
2023-04-10T02:19:42.334Z,0.20
2023-04-10T02:23:55.107Z,1.08
2023-04-10T02:28:08.848Z,0.60
2023-04-10T02:32:21.545Z,1.13
2023-04-10T02:36:39.989Z,0.52
2023-04-10T02:40:52.428Z,0.68
2023-04-10T02:45:05.456Z,0.73
2023-04-10T02:49:17.989Z,0.52
2023-04-10T02:53:30.462Z,0.25
2023-04-10T02:57:44.542Z,0.38
2023-04-10T03:01:57.160Z,0.65
2023-04-10T03:06:10.590Z,0.73
2023-04-10T03:10:23.214Z,0.20
2023-04-10T03:14:35.748Z,0.10
2023-04-10T03:18:48.309Z,0.20
2023-04-10T03:23:01.585Z,0.40
2023-04-10T03:27:14.040Z,0.80
2023-04-10T03:31:26.666Z,0.30
2023-04-10T03:35:39.261Z,0.65
2023-04-10T03:39:51.780Z,1.20
2023-04-10T03:44:05.441Z,0.30
2023-04-10T03:48:18.757Z,0.70
2023-04-10T03:52:31.473Z,0.22
2023-04-10T03:56:43.944Z,0.80
2023-04-10T04:00:56.930Z,1.10
2023-04-10T04:05:10.292Z,0.10
2023-04-10T04:09:23.096Z,0.77
2023-04-10T04:13:35.550Z,0.00
2023-04-10T04:17:48.085Z,0.45
2023-04-10T04:22:01.219Z,0.30
2023-04-10T04:26:13.726Z,0.93
2023-04-10T04:30:26.418Z,0.20
2023-04-10T04:34:38.870Z,0.40
2023-04-10T04:38:51.414Z,0.40
2023-04-10T04:43:03.885Z,0.47
2023-04-10T04:47:16.495Z,0.35
2023-04-10T04:51:29.323Z,0.20
2023-04-10T04:55:42.204Z,0.10
2023-04-10T04:59:54.837Z,0.40
2023-04-10T05:04:07.695Z,0.30
2023-04-10T05:08:20.217Z,0.10
2023-04-10T05:12:32.705Z,0.40
2023-04-10T05:16:45.225Z,0.30
2023-04-10T05:20:57.713Z,0.50
2023-04-10T05:25:10.378Z,0.70
2023-04-10T05:29:22.897Z,0.28
2023-04-10T05:33:35.305Z,0.75
2023-04-10T05:37:47.737Z,0.35
2023-04-10T05:42:00.235Z,0.30
2023-04-10T05:46:12.850Z,0.75
2023-04-10T05:50:26.922Z,1.33
2023-04-10T05:54:40.631Z,1.00
2023-04-10T05:58:53.319Z,0.55
2023-04-10T06:03:06.070Z,0.10
2023-04-10T06:07:18.584Z,0.77
2023-04-10T06:11:31.401Z,0.40
2023-04-10T06:15:44.135Z,1.23
2023-04-10T06:19:57.604Z,0.35
2023-04-10T06:24:12.709Z,0.63
2023-04-10T06:28:25.348Z,0.13
2023-04-10T06:32:37.940Z,1.20
2023-04-10T06:37:00.430Z,0.70
2023-04-10T06:41:13.049Z,0.30
2023-04-10T06:45:25.490Z,1.02
2023-04-10T06:49:44.223Z,1.10
2023-04-10T06:53:56.925Z,0.98
2023-04-10T06:58:09.399Z,1.15
2023-04-10T07:02:22.282Z,0.73
2023-04-10T07:06:34.903Z,0.20
2023-04-10T07:10:47.385Z,1.10
2023-04-10T07:15:07.514Z,0.80
2023-04-10T07:19:19.976Z,0.32
2023-04-10T07:23:32.639Z,1.20
2023-04-10T07:27:45.070Z,0.50
2023-04-10T07:31:57.884Z,0.57
2023-04-10T07:36:10.535Z,0.60
2023-04-10T07:40:23.044Z,1.08
2023-04-10T07:44:35.430Z,1.48
2023-04-10T07:48:57.956Z,1.23
2023-04-10T07:53:10.534Z,0.45
2023-04-10T07:57:22.952Z,0.32
2023-04-10T08:01:37.299Z,0.93
2023-04-10T08:05:50.183Z,0.80
2023-04-10T08:10:03.341Z,1.30
2023-04-10T08:14:18.430Z,0.43
2023-04-10T08:18:31.143Z,1.40
2023-04-10T08:22:45.028Z,1.02
2023-04-10T08:27:07.789Z,0.45
2023-04-10T08:31:22.041Z,1.15
2023-04-10T08:35:42.425Z,0.45
2023-04-10T08:39:59.927Z,0.85
2023-04-10T08:44:18.592Z,1.30
2023-04-10T08:48:40.494Z,1.42
2023-04-10T08:52:56.605Z,0.98
2023-04-10T08:57:18.688Z,0.82
2023-04-10T09:01:36.153Z,1.40
2023-04-10T09:05:57.699Z,1.73
2023-04-10T09:10:20.333Z,0.77
2023-04-10T09:14:34.903Z,1.60
2023-04-10T09:18:50.664Z,1.33
2023-04-10T09:23:03.151Z,1.17
2023-04-10T09:27:33.727Z,1.38
2023-04-10T09:31:56.147Z,1.75
2023-04-10T09:36:14.691Z,1.20
2023-04-10T09:40:27.438Z,0.60
2023-04-10T09:44:41.348Z,1.45
2023-04-10T09:49:02.076Z,1.33
2023-04-10T09:53:18.008Z,1.30
2023-04-10T09:57:33.465Z,1.70
2023-04-10T10:01:46.838Z,1.50
2023-04-10T10:05:59.403Z,1.40
2023-04-10T10:10:13.307Z,1.20
2023-04-10T10:14:29.663Z,1.63
2023-04-10T10:18:56.524Z,1.15
2023-04-10T10:23:09.260Z,1.58
2023-04-10T10:27:21.829Z,1.27
2023-04-10T10:31:36.170Z,1.40
2023-04-10T10:35:50.941Z,1.52
2023-04-10T10:40:46.780Z,1.30
2023-04-10T10:45:20.279Z,1.63
2023-04-10T10:49:56.284Z,0.75
2023-04-10T10:54:31.622Z,1.33
2023-04-10T10:58:56.629Z,1.83
2023-04-10T11:03:09.500Z,1.60
2023-04-10T11:07:22.492Z,1.60
2023-04-10T11:11:59.928Z,1.50
2023-04-10T11:16:12.683Z,1.58
2023-04-10T11:20:29.303Z,2.05
2023-04-10T11:25:03.319Z,1.77
2023-04-10T11:29:18.850Z,1.60
2023-04-10T11:33:31.443Z,1.48
2023-04-10T11:37:43.969Z,1.65
2023-04-10T11:41:58.382Z,1.42
2023-04-10T11:46:10.955Z,1.23
2023-04-10T11:50:23.445Z,1.30
2023-04-10T11:54:36.092Z,1.30
2023-04-10T11:58:55.218Z,1.80
2023-04-10T12:03:08.138Z,1.48
2023-04-10T12:07:33.127Z,1.50
2023-04-10T12:12:02.284Z,1.33
2023-04-10T12:20:29.835Z,0.90
2023-04-10T12:24:51.505Z,1.02
2023-04-10T12:29:04.464Z,1.38
2023-04-10T12:33:25.343Z,1.15
2023-04-10T12:37:48.897Z,1.23
2023-04-10T12:42:17.856Z,1.23
2023-04-10T12:46:30.599Z,1.30
2023-04-10T12:50:50.103Z,0.90
2023-04-10T12:55:21.759Z,1.30
2023-04-10T12:59:34.533Z,1.30
2023-04-10T13:03:49.677Z,1.20
2023-04-10T13:08:02.120Z,1.23
2023-04-10T13:12:15.322Z,0.80
2023-04-10T13:16:27.846Z,1.23
2023-04-10T13:20:41.903Z,0.77
2023-04-10T13:24:54.461Z,0.90
2023-04-10T13:29:06.939Z,1.23
2023-04-10T13:33:19.516Z,0.60
2023-04-10T13:37:32.050Z,1.05
2023-04-10T13:41:44.528Z,1.10
2023-04-10T13:45:56.946Z,0.75
2023-04-10T13:50:10.305Z,0.90
2023-04-10T13:54:22.805Z,1.20
2023-04-10T13:58:35.209Z,1.10
2023-04-10T14:02:47.709Z,1.10
2023-04-10T14:07:01.242Z,1.00
2023-04-10T14:11:23.911Z,0.98
2023-04-10T14:15:36.359Z,1.08
2023-04-10T14:19:52.168Z,1.20
2023-04-10T14:24:04.568Z,1.00
2023-04-10T14:28:20.238Z,1.10
2023-04-10T14:32:32.748Z,0.88
2023-04-10T14:36:45.380Z,1.02
2023-04-10T14:40:57.883Z,0.98
2023-04-10T14:45:11.502Z,0.82
2023-04-10T14:49:24.005Z,0.95
2023-04-10T14:53:37.328Z,1.05
2023-04-10T14:57:49.776Z,1.10
2023-04-10T15:02:02.324Z,0.90
2023-04-10T15:06:14.777Z,0.93
2023-04-10T15:10:29.320Z,0.90
2023-04-10T15:14:55.063Z,0.95
2023-04-10T15:19:07.574Z,1.10
2023-04-10T15:23:20.065Z,0.93
2023-04-10T15:27:32.494Z,1.15
2023-04-10T15:31:44.923Z,0.68
2023-04-10T15:35:57.430Z,1.17
2023-04-10T15:40:11.343Z,0.70
2023-04-10T15:44:23.872Z,0.82
2023-04-10T15:48:36.331Z,0.95
2023-04-10T15:52:48.852Z,1.00
2023-04-10T15:57:02.596Z,0.85
2023-04-10T16:01:15.148Z,1.73
2023-04-10T16:05:27.722Z,1.10
2023-04-10T16:09:40.116Z,1.00
2023-04-10T16:13:52.585Z,0.70
2023-04-10T16:18:06.663Z,1.00
2023-04-10T16:22:19.148Z,1.17
2023-04-10T16:26:41.597Z,0.80
2023-04-10T16:31:04.273Z,0.77
2023-04-10T16:35:18.824Z,0.73
2023-04-10T16:39:31.442Z,0.88
2023-04-10T16:43:43.944Z,0.77
2023-04-10T16:47:56.697Z,1.00
2023-04-10T16:52:09.191Z,0.95
2023-04-10T16:56:21.998Z,0.80
2023-04-10T17:00:34.538Z,1.00
2023-04-10T17:04:47.627Z,0.73
2023-04-10T17:09:00.155Z,0.70
2023-04-10T17:13:13.155Z,1.05
2023-04-10T17:17:25.664Z,0.70
2023-04-10T17:21:38.600Z,0.55
2023-04-10T17:25:51.208Z,0.57
2023-04-10T17:30:04.660Z,0.70
2023-04-10T17:34:17.280Z,0.88
2023-04-10T17:38:29.731Z,0.32
2023-04-10T17:42:42.192Z,0.70
2023-04-10T17:46:54.945Z,0.80
2023-04-10T17:51:08.264Z,0.57
2023-04-10T17:55:21.296Z,0.90
2023-04-10T17:59:33.955Z,0.57
2023-04-10T18:03:46.447Z,0.60
2023-04-10T18:07:58.999Z,0.60
2023-04-10T18:12:11.533Z,0.75
2023-04-10T18:16:24.141Z,0.82
2023-04-10T18:20:36.587Z,0.57
2023-04-10T18:24:49.668Z,0.40
2023-04-10T18:29:02.266Z,0.50
2023-04-10T18:33:21.073Z,0.68
2023-04-10T18:37:33.970Z,0.70
2023-04-10T18:41:46.486Z,0.85
2023-04-10T18:46:00.670Z,1.20
2023-04-10T18:50:13.253Z,1.30
2023-04-10T18:54:36.411Z,1.02
2023-04-10T18:58:50.171Z,0.95
2023-04-10T19:03:04.208Z,1.20
2023-04-10T19:07:26.839Z,1.40
2023-04-10T19:11:40.714Z,0.93
2023-04-10T19:16:06.960Z,1.45
2023-04-10T19:20:50.840Z,1.45
2023-04-10T19:24:56.707Z,0.98
2023-04-10T19:29:09.683Z,1.02
2023-04-10T19:33:22.229Z,1.40
2023-04-10T19:37:34.852Z,1.27
2023-04-10T19:41:47.858Z,1.10
2023-04-10T19:46:00.630Z,0.95
2023-04-10T19:50:13.159Z,0.98
2023-04-10T19:54:25.580Z,1.10
2023-04-10T19:58:41.076Z,1.42
2023-04-10T20:02:55.192Z,1.60
2023-04-10T20:07:08.190Z,1.30
2023-04-10T20:11:20.623Z,1.58
2023-04-10T20:15:33.044Z,1.38
2023-04-10T20:19:52.862Z,0.90
2023-04-10T20:24:05.534Z,1.60
2023-04-10T20:28:18.401Z,1.27
2023-04-10T20:32:30.829Z,1.05
2023-04-10T20:36:43.308Z,1.00
2023-04-10T20:40:55.845Z,1.40
2023-04-10T20:45:09.051Z,1.38
2023-04-10T20:49:21.773Z,1.17
2023-04-10T20:53:34.838Z,1.20
2023-04-10T20:57:47.337Z,1.33
2023-04-10T21:02:09.928Z,1.42
2023-04-10T21:06:22.543Z,1.50
2023-04-10T21:10:35.686Z,1.08
2023-04-10T21:14:49.032Z,0.95
2023-04-10T21:19:01.602Z,0.82
2023-04-10T21:23:14.148Z,1.30
2023-04-10T21:27:26.580Z,1.05
2023-04-10T21:31:50.529Z,1.38
2023-04-10T21:36:03.288Z,1.60
2023-04-10T21:40:16.686Z,0.82
2023-04-10T21:44:29.096Z,1.10
2023-04-10T21:48:42.401Z,0.93
2023-04-10T21:52:54.972Z,1.40
2023-04-10T21:57:08.424Z,1.63
2023-04-10T22:01:20.920Z,1.38
2023-04-10T22:05:33.353Z,1.27
2023-04-10T22:09:45.985Z,1.17
2023-04-10T22:14:02.957Z,1.67
2023-04-10T22:18:25.827Z,1.17
2023-04-10T22:22:44.311Z,0.97
2023-04-10T22:26:56.894Z,1.23
2023-04-10T22:31:18.885Z,1.13
2023-04-10T22:35:31.778Z,1.48
2023-04-10T22:39:44.224Z,1.58
2023-04-10T22:43:56.809Z,1.42
2023-04-10T22:48:09.511Z,1.30
2023-04-10T22:52:22.006Z,1.60
2023-04-10T22:56:34.455Z,0.90
2023-04-10T23:00:46.923Z,0.98
2023-04-10T23:04:59.460Z,2.10
2023-04-10T23:09:11.869Z,1.30
2023-04-10T23:13:24.344Z,1.25
2023-04-10T23:17:36.836Z,1.38
2023-04-10T23:21:50.529Z,1.10
2023-04-10T23:26:03.486Z,1.10
2023-04-10T23:30:16.178Z,1.95
2023-04-10T23:34:28.634Z,1.60
2023-04-10T23:38:41.683Z,1.40
2023-04-10T23:42:54.170Z,1.73
2023-04-10T23:47:07.272Z,1.23
2023-04-10T23:51:19.699Z,1.55
2023-04-10T23:55:32.161Z,1.52
2023-04-10T23:59:44.564Z,1.42
